Time;durP1;ratioP1;P1;durP2;ratioP2;P2;SDS_P1;SDS_P2;PMS_P1;PMS_P2;Temp;Humidity;BMP_temperature;BMP_pressure;BME280_temperature;BME280_humidity;BME280_pressure;Samples;Min_cycle;Max_cycle;Signal;HPM_P1;HPM_P2
2022/04/03 00:01:46;;;;;;;8.93;5.35;;;1.60;99.90;;;;;;5072808;28;20456;-68
2022/04/03 00:04:12;;;;;;;9.63;6.00;;;;;;;;;;5080389;28;20040;-69
2022/04/03 00:06:38;;;;;;;11.93;6.68;;;;;;;;;;5089590;28;20150;-67
2022/04/03 00:09:04;;;;;;;13.40;7.40;;;;;;;;;;5072138;28;20416;-67
2022/04/03 00:11:31;;;;;;;16.85;7.57;;;;;;;;;;5090810;28;20048;-66
2022/04/03 00:13:57;;;;;;;15.70;6.57;;;;;;;;;;5089817;28;20067;-68
2022/04/03 00:16:23;;;;;;;16.75;7.03;;;;;;;;;;5089492;28;20089;-68
2022/04/03 00:18:49;;;;;;;13.07;6.18;;;;;;;;;;5090920;28;20424;-68
2022/04/03 00:21:16;;;;;;;12.05;5.93;;;1.90;99.90;;;;;;5088823;28;20040;-68
2022/04/03 00:23:42;;;;;;;14.32;5.85;;;1.90;99.90;;;;;;5089506;28;20089;-67
2022/04/03 00:26:08;;;;;;;13.55;6.50;;;;;;;;;;5053642;28;1021233;-68
2022/04/03 00:28:33;;;;;;;10.40;5.03;;;;;;;;;;5091594;28;20044;-69
2022/04/03 00:31:00;;;;;;;11.77;4.93;;;;;;;;;;5089375;28;20051;-68
2022/04/03 00:33:26;;;;;;;12.15;4.63;;;;;;;;;;5090725;28;20081;-69
2022/04/03 00:35:52;;;;;;;6.55;3.10;;;;;;;;;;5092730;28;20044;-68
2022/04/03 00:38:18;;;;;;;10.32;4.10;;;;;;;;;;5091437;28;20044;-69
2022/04/03 00:40:45;;;;;;;4.75;2.72;;;;;;;;;;5090594;28;20043;-68
2022/04/03 00:43:11;;;;;;;8.23;3.10;;;;;;;;;;5090303;28;20442;-67
2022/04/03 00:45:39;;;;;;;5.35;2.88;;;;;;;;;;5090135;28;20101;-67
2022/04/03 00:48:07;;;;;;;4.53;2.67;;;2.40;99.90;;;;;;5090044;28;20087;-68
2022/04/03 00:50:33;;;;;;;6.13;3.13;;;;;;;;;;5063544;28;20032;-69
2022/04/03 00:52:59;;;;;;;6.00;3.13;;;;;;;;;;5091077;28;20059;-69
2022/04/03 00:55:25;;;;;;;4.57;3.17;;;;;;;;;;5073184;28;20036;-68
2022/04/03 00:57:51;;;;;;;7.50;3.60;;;;;;;;;;5073077;28;20047;-67
2022/04/03 01:00:17;;;;;;;4.13;2.47;;;;;;;;;;5072426;28;20486;-67
2022/04/03 01:02:43;;;;;;;6.07;2.20;;;;;;;;;;5072966;28;20064;-69
2022/04/03 01:05:10;;;;;;;7.05;2.55;;;;;;;;;;5091162;28;20466;-67
2022/04/03 01:07:36;;;;;;;4.22;2.35;;;;;;;;;;5072898;28;20067;-68
2022/04/03 01:10:02;;;;;;;8.95;4.15;;;;;;;;;;5091024;28;20498;-69
2022/04/03 01:12:28;;;;;;;3.85;2.40;;;;;;;;;;5095206;28;20040;-67
2022/04/03 01:14:54;;;;;;;4.82;3.05;;;;;;;;;;5076841;28;20050;-67
2022/04/03 01:17:20;;;;;;;4.65;2.97;;;;;;;;;;5076657;28;20040;-67
2022/04/03 01:19:46;;;;;;;5.10;2.55;;;;;;;;;;5076704;28;20040;-68
2022/04/03 01:22:12;;;;;;;6.60;2.38;;;2.70;99.90;;;;;;5076810;28;20040;-69
2022/04/03 01:24:42;;;;;;;4.22;2.10;;;;;;;;;;5060104;28;20123;-68
2022/04/03 01:27:08;;;;;;;4.68;2.15;;;;;;;;;;5094666;28;20035;-68
2022/04/03 01:29:34;;;;;;;3.33;2.00;;;;;;;;;;5075657;28;20042;-68
2022/04/03 01:32:00;;;;;;;4.88;2.50;;;;;;;;;;5077056;28;20098;-68
2022/04/03 01:34:26;;;;;;;4.68;2.25;;;;;;;;;;5096874;28;20039;-69
2022/04/03 01:36:52;;;;;;;5.25;2.30;;;;;;;;;;5077817;28;20036;-68
2022/04/03 01:39:18;;;;;;;5.20;2.50;;;;;;;;;;5096123;28;20043;-68
2022/04/03 01:41:44;;;;;;;3.63;2.45;;;2.60;99.90;;;;;;5095135;28;20043;-68
2022/04/03 01:44:11;;;;;;;3.20;2.20;;;2.60;99.90;;;;;;5062006;28;20040;-68
2022/04/03 01:46:37;;;;;;;6.47;2.20;;;2.50;99.90;;;;;;5079288;28;20044;-69
2022/04/03 01:49:04;;;;;;;4.32;2.67;;;;;;;;;;5076391;28;20040;-68
2022/04/03 01:51:30;;;;;;;4.85;2.22;;;;;;;;;;5055635;28;20074;-69
2022/04/03 01:53:56;;;;;;;4.68;2.60;;;;;;;;;;5056173;28;20525;-68
2022/04/03 01:56:22;;;;;;;3.75;2.40;;;2.50;99.90;;;;;;5074321;28;20040;-68
2022/04/03 01:58:48;;;;;;;3.97;2.30;;;;;;;;;;5074166;28;20036;-69
2022/04/03 02:01:14;;;;;;;3.53;3.10;;;;;;;;;;5055393;28;20227;-67
2022/04/03 02:03:40;;;;;;;5.03;2.95;;;;;;;;;;5070298;28;20051;-68
2022/04/03 02:06:06;;;;;;;5.20;2.22;;;;;;;;;;5076001;28;20048;-68
2022/04/03 02:08:32;;;;;;;4.32;2.33;;;2.40;99.90;;;;;;5094229;28;20123;-67
2022/04/03 02:10:58;;;;;;;4.40;2.10;;;;;;;;;;5093497;28;20512;-68
2022/04/03 02:13:24;;;;;;;5.00;2.50;;;;;;;;;;5093946;28;20478;-68
2022/04/03 02:15:50;;;;;;;4.57;2.15;;;;;;;;;;5093808;28;20431;-69
2022/04/03 02:18:17;;;;;;;4.70;2.35;;;2.30;99.90;;;;;;5075622;28;20055;-68
2022/04/03 02:20:43;;;;;;;4.50;1.92;;;;;;;;;;5093254;28;20048;-68
2022/04/03 02:23:09;;;;;;;4.07;2.50;;;2.30;99.90;;;;;;5075484;28;20421;-68
2022/04/03 02:25:34;;;;;;;6.03;2.25;;;2.10;99.90;;;;;;5093712;28;20078;-68
2022/04/03 02:28:01;;;;;;;3.63;1.98;;;;;;;;;;5094067;28;20071;-68
2022/04/03 02:30:27;;;;;;;3.20;2.10;;;;;;;;;;5058059;28;20131;-69
2022/04/03 02:32:53;;;;;;;9.25;3.55;;;;;;;;;;5075494;28;20108;-68
2022/04/03 02:35:18;;;;;;;4.22;1.77;;;2.20;99.90;;;;;;5075514;28;20409;-69
2022/04/03 02:37:45;;;;;;;7.88;2.33;;;;;;;;;;5075250;28;20032;-68
2022/04/03 02:40:14;;;;;;;5.47;2.03;;;;;;;;;;5074492;28;20044;-68
2022/04/03 02:42:41;;;;;;;3.78;2.53;;;2.20;99.90;;;;;;5075602;28;20132;-70
2022/04/03 02:45:08;;;;;;;3.97;2.10;;;;;;;;;;5075571;28;20047;-68
2022/04/03 02:47:34;;;;;;;3.72;2.10;;;;;;;;;;5093198;28;20040;-67
2022/04/03 02:50:00;;;;;;;6.43;2.13;;;;;;;;;;5092639;28;20164;-67
2022/04/03 02:52:26;;;;;;;8.13;2.35;;;;;;;;;;5093421;28;20077;-68
2022/04/03 02:54:52;;;;;;;2.38;1.60;;;;;;;;;;5093369;28;20044;-68
2022/04/03 02:57:18;;;;;;;2.75;2.00;;;;;;;;;;5093188;28;20089;-68
2022/04/03 02:59:45;;;;;;;3.92;2.00;;;;;;;;;;5092308;28;20040;-68
2022/04/03 03:02:11;;;;;;;4.63;2.10;;;;;;;;;;5057949;28;20048;-68
2022/04/03 03:04:38;;;;;;;5.03;2.03;;;;;;;;;;5087265;28;20415;-68
2022/04/03 03:07:08;;;;;;;3.13;2.35;;;;;;;;;;5091414;28;20055;-70
2022/04/03 03:09:34;;;;;;;4.28;2.20;;;;;;;;;;5090780;28;20040;-70
2022/04/03 03:12:00;;;;;;;3.78;2.13;;;1.70;99.90;;;;;;5091692;28;20032;-68
2022/04/03 03:14:27;;;;;;;3.78;2.40;;;;;;;;;;5091411;28;20035;-69
2022/04/03 03:16:53;;;;;;;3.85;2.60;;;;;;;;;;5091573;28;20120;-68
2022/04/03 03:19:19;;;;;;;4.15;2.08;;;;;;;;;;5090816;28;20108;-68
2022/04/03 03:21:45;;;;;;;3.75;2.17;;;;;;;;;;5092476;28;20498;-68
2022/04/03 03:24:11;;;;;;;4.57;2.58;;;;;;;;;;5091336;28;20173;-68
2022/04/03 03:26:37;;;;;;;5.60;2.33;;;1.60;99.90;;;;;;5074484;28;20122;-68
2022/04/03 03:29:03;;;;;;;3.88;2.50;;;1.70;99.90;;;;;;5073659;28;20043;-70
2022/04/03 03:31:29;;;;;;;2.88;1.70;;;;;;;;;;5073832;28;20398;-69
2022/04/03 03:33:55;;;;;;;3.60;2.17;;;;;;;;;;5092067;28;20036;-69
2022/04/03 03:36:21;;;;;;;5.95;2.78;;;;;;;;;;5076486;28;20382;-68
2022/04/03 03:38:47;;;;;;;7.07;2.80;;;;;;;;;;5080062;28;20040;-68
2022/04/03 03:41:14;;;;;;;3.30;2.13;;;;;;;;;;5096046;28;20046;-68
2022/04/03 03:43:40;;;;;;;4.57;2.10;;;;;;;;;;5096159;28;20063;-69
2022/04/03 03:46:06;;;;;;;5.20;2.67;;;;;;;;;;5094688;28;20040;-68
2022/04/03 03:48:32;;;;;;;5.55;2.10;;;;;;;;;;5090760;28;20566;-69
2022/04/03 03:50:58;;;;;;;3.28;2.10;;;;;;;;;;5077368;28;20063;-69
2022/04/03 03:53:24;;;;;;;4.35;2.00;;;;;;;;;;5074069;28;20036;-68
2022/04/03 03:55:50;;;;;;;4.18;2.20;;;;;;;;;;5073726;28;20107;-68
2022/04/03 03:58:16;;;;;;;6.78;2.97;;;;;;;;;;5073701;28;20065;-70
2022/04/03 04:00:42;;;;;;;3.35;2.08;;;;;;;;;;5073218;28;20044;-68
2022/04/03 04:03:08;;;;;;;3.13;1.80;;;;;;;;;;5073807;28;20076;-68
2022/04/03 04:05:35;;;;;;;2.90;1.95;;;;;;;;;;5091549;28;20047;-68
2022/04/03 04:08:01;;;;;;;3.63;1.98;;;;;;;;;;5056988;28;20493;-70
2022/04/03 04:10:27;;;;;;;4.88;2.20;;;;;;;;;;5054449;28;20040;-69
2022/04/03 04:12:53;;;;;;;4.15;1.90;;;;;;;;;;5056700;28;20493;-68
2022/04/03 04:15:19;;;;;;;2.20;2.00;;;;;;;;;;5073624;28;20121;-68
2022/04/03 04:17:47;;;;;;;2.88;2.03;;;1.50;99.90;;;;;;5073550;28;20032;-67
2022/04/03 04:20:14;;;;;;;2.38;1.88;;;;;;;;;;5072886;28;20039;-67
2022/04/03 04:22:40;;;;;;;4.32;2.05;;;;;;;;;;5073426;28;20079;-68
2022/04/03 04:25:07;;;;;;;3.03;1.77;;;;;;;;;;5091374;28;20065;-68
2022/04/03 04:27:33;;;;;;;3.47;2.03;;;1.30;99.90;;;;;;5091264;28;20046;-68
2022/04/03 04:29:59;;;;;;;5.03;2.13;;;;;;;;;;5072595;28;20484;-67
2022/04/03 04:32:26;;;;;;;6.10;2.22;;;;;;;;;;5073475;28;20044;-68
2022/04/03 04:34:52;;;;;;;3.15;1.48;;;;;;;;;;5073413;28;20119;-68
2022/04/03 04:37:18;;;;;;;4.50;2.03;;;;;;;;;;5091182;28;20044;-68
2022/04/03 04:39:45;;;;;;;2.38;1.80;;;1.10;99.90;;;;;;5072540;28;20081;-68
2022/04/03 04:42:12;;;;;;;6.38;2.30;;;;;;;;;;5073514;28;20074;-67
2022/04/03 04:44:38;;;;;;;5.72;2.03;;;;;;;;;;5072379;28;20094;-68
2022/04/03 04:47:04;;;;;;;3.03;1.92;;;;;;;;;;5091242;28;20043;-68
2022/04/03 04:49:30;;;;;;;6.50;2.10;;;1.20;99.90;;;;;;5094224;28;20039;-68
2022/04/03 04:51:55;;;;;;;4.65;2.33;;;;;;;;;;5091965;28;20032;-68
2022/04/03 04:54:21;;;;;;;2.80;1.75;;;;;;;;;;5090154;28;20038;-68
2022/04/03 04:56:47;;;;;;;6.72;2.08;;;;;;;;;;5073257;28;20039;-67
2022/04/03 04:59:13;;;;;;;5.22;2.10;;;;;;;;;;5072483;28;20055;-68
2022/04/03 05:01:40;;;;;;;5.57;1.90;;;;;;;;;;5073224;28;20040;-69
2022/04/03 05:04:06;;;;;;;3.72;1.88;;;;;;;;;;5073121;28;20048;-67
2022/04/03 05:06:33;;;;;;;4.47;1.85;;;;;;;;;;5073200;28;20040;-69
2022/04/03 05:08:59;;;;;;;2.90;1.75;;;;;;;;;;5090465;28;20044;-67
2022/04/03 05:11:26;;;;;;;3.90;1.83;;;;;;;;;;5090750;28;20504;-67
2022/04/03 05:13:52;;;;;;;2.40;1.70;;;;;;;;;;5073250;28;20473;-67
2022/04/03 05:16:18;;;;;;;4.47;1.92;;;;;;;;;;5091105;28;20111;-68
2022/04/03 05:18:44;;;;;;;4.07;2.13;;;;;;;;;;5072685;28;20486;-67
2022/04/03 05:21:10;;;;;;;3.60;2.00;;;;;;;;;;5055080;28;20048;-67
2022/04/03 05:23:37;;;;;;;3.58;2.13;;;;;;;;;;5090987;28;20050;-67
2022/04/03 05:26:03;;;;;;;5.93;2.28;;;;;;;;;;5090869;28;20046;-69
2022/04/03 05:28:29;;;;;;;3.30;1.60;;;;;;;;;;5091014;28;20130;-68
2022/04/03 05:30:55;;;;;;;3.40;1.60;;;;;;;;;;5072221;28;20108;-68
2022/04/03 05:33:22;;;;;;;2.97;2.10;;;;;;;;;;5090725;28;20123;-69
2022/04/03 05:35:48;;;;;;;7.70;1.83;;;1.60;99.90;;;;;;5072463;28;20062;-68
2022/04/03 05:38:14;;;;;;;3.92;1.80;;;;;;;;;;5072610;28;20477;-68
2022/04/03 05:40:40;;;;;;;3.42;1.80;;;;;;;;;;5071897;28;20040;-67
2022/04/03 05:43:06;;;;;;;3.90;1.38;;;;;;;;;;5072787;28;20043;-68
2022/04/03 05:45:32;;;;;;;5.85;1.90;;;;;;;;;;5072700;28;20044;-67
2022/04/03 05:47:58;;;;;;;3.40;1.65;;;;;;;;;;5090685;28;20047;-68
2022/04/03 05:50:24;;;;;;;4.15;1.92;;;1.80;99.90;;;;;;5071480;28;20044;-68
2022/04/03 05:52:51;;;;;;;3.83;1.70;;;;;;;;;;5090948;28;20406;-67
2022/04/03 05:55:18;;;;;;;3.40;1.70;;;1.90;99.90;;;;;;5072455;28;20089;-67
2022/04/03 05:57:45;;;;;;;2.80;1.70;;;;;;;;;;5075650;28;20106;-69
2022/04/03 06:00:12;;;;;;;7.90;4.22;;;;;;;;;;5093621;28;20172;-67
2022/04/03 06:03:02;;;;;;;4.95;1.45;;;2.10;99.90;;;;;;5071652;28;21077;-67
2022/04/03 06:05:29;;;;;;;3.83;1.63;;;;;;;;;;5080994;28;20083;-68
2022/04/03 06:07:55;;;;;;;4.63;1.85;;;;;;;;;;5075818;28;20051;-68
2022/04/03 06:10:23;;;;;;;6.20;1.70;;;;;;;;;;5058242;28;20040;-68
2022/04/03 06:12:57;;;;;;;4.07;1.73;;;;;;;;;;5094111;28;20040;-68
2022/04/03 06:15:23;;;;;;;3.05;1.50;;;;;;;;;;5093759;28;20068;-67
2022/04/03 06:17:52;;;;;;;2.97;1.80;;;1.80;99.90;;;;;;5094031;28;20050;-68
2022/04/03 06:20:18;;;;;;;6.72;2.03;;;2.10;99.90;;;;;;5075035;28;20036;-68
2022/04/03 06:22:44;;;;;;;3.15;1.80;;;;;;;;;;5094230;28;20040;-67
2022/04/03 06:25:11;;;;;;;3.35;1.80;;;;;;;;;;5093739;28;20075;-68
2022/04/03 06:27:36;;;;;;;4.88;1.60;;;2.10;99.90;;;;;;5075391;28;20048;-67
2022/04/03 06:30:03;;;;;;;2.40;1.33;;;;;;;;;;5074548;28;20032;-67
2022/04/03 06:32:29;;;;;;;4.13;1.70;;;;;;;;;;5093785;28;20040;-67
2022/04/03 06:34:55;;;;;;;7.55;1.65;;;2.00;99.90;;;;;;5093700;28;20040;-68
2022/04/03 06:37:21;;;;;;;5.47;1.52;;;;;;;;;;5075461;28;20101;-68
2022/04/03 06:39:46;;;;;;;7.45;2.03;;;1.70;99.90;;;;;;5074544;28;20048;-68
2022/04/03 06:42:12;;;;;;;2.47;1.40;;;;;;;;;;5075291;28;20043;-67
2022/04/03 06:44:39;;;;;;;4.97;1.60;;;2.20;99.90;;;;;;5093424;28;20040;-67
2022/04/03 06:47:05;;;;;;;1.90;1.10;;;;;;;;;;5075026;28;20063;-69
2022/04/03 06:49:31;;;;;;;2.83;1.48;;;;;;;;;;5057614;28;20074;-67
2022/04/03 06:51:57;;;;;;;5.47;2.65;;;;;;;;;;5092879;28;20068;-68
2022/04/03 06:54:23;;;;;;;3.20;1.52;;;;;;;;;;5075249;28;20071;-68
2022/04/03 06:56:49;;;;;;;4.60;2.05;;;;;;;;;;5075490;28;20544;-69
2022/04/03 06:59:15;;;;;;;3.10;1.70;;;;;;;;;;5092185;28;20117;-68
2022/04/03 07:01:41;;;;;;;3.53;1.58;;;;;;;;;;5093276;28;20069;-67
2022/04/03 07:04:07;;;;;;;4.50;1.73;;;3.60;99.90;;;;;;5074921;28;20089;-68
2022/04/03 07:06:33;;;;;;;6.40;2.30;;;;;;;;;;5075037;28;20042;-68
2022/04/03 07:08:58;;;;;;;4.82;1.35;;;;;;;;;;5091230;28;20112;-68
2022/04/03 07:11:24;;;;;;;7.28;1.50;;;;;;;;;;5093236;28;20040;-68
2022/04/03 07:13:50;;;;;;;4.10;1.50;;;;;;;;;;5074491;28;20494;-68
2022/04/03 07:16:17;;;;;;;5.03;1.70;;;;;;;;;;5074476;28;20510;-69
2022/04/03 07:18:43;;;;;;;7.10;2.08;;;;;;;;;;5074549;28;20498;-68
2022/04/03 07:21:09;;;;;;;6.20;1.40;;;4.50;99.90;;;;;;5073599;28;20048;-67
2022/04/03 07:23:35;;;;;;;3.20;1.40;;;;;;;;;;5074369;28;20043;-68
2022/04/03 07:26:01;;;;;;;6.40;1.42;;;;;;;;;;5074439;28;20068;-70
2022/04/03 07:28:27;;;;;;;4.72;1.35;;;;;;;;;;5074258;28;20044;-68
2022/04/03 07:30:53;;;;;;;3.28;1.33;;;;;;;;;;5073379;28;20040;-68
2022/04/03 07:33:20;;;;;;;7.63;1.67;;;;;;;;;;5092618;28;20113;-67
2022/04/03 07:35:47;;;;;;;6.05;1.50;;;;;;;;;;5074293;28;20035;-68
2022/04/03 07:38:14;;;;;;;6.35;2.13;;;;;;;;;;5092376;28;20083;-67
2022/04/03 07:40:40;;;;;;;5.18;1.45;;;;;;;;;;5073802;28;20093;-67
2022/04/03 07:43:06;;;;;;;4.60;1.30;;;;;;;;;;5074134;28;20417;-68
2022/04/03 07:45:33;;;;;;;1.58;1.17;;;;;;;;;;5074113;28;20051;-69
2022/04/03 07:47:59;;;;;;;1.63;1.20;;;5.40;99.90;;;;;;5074138;28;20506;-68
2022/04/03 07:50:25;;;;;;;7.22;1.77;;;5.40;99.90;;;;;;5072957;28;20075;-68
2022/04/03 07:52:51;;;;;;;2.88;1.33;;;;;;;;;;5074217;28;20039;-68
2022/04/03 07:55:18;;;;;;;2.63;1.45;;;;;;;;;;5073809;28;20035;-68
2022/04/03 07:57:44;;;;;;;2.88;0.98;;;;;;;;;;5073893;28;20393;-68
2022/04/03 08:00:11;;;;;;;6.55;1.77;;;;;;;;;;5073114;28;20040;-67
2022/04/03 08:02:38;;;;;;;1.42;0.80;;;5.40;99.90;;;;;;5058857;28;20047;-67
2022/04/03 08:05:05;;;;;;;3.17;0.90;;;;;;;;;;5065707;28;20097;-68
2022/04/03 08:07:34;;;;;;;5.10;1.30;;;;;;;;;;5099869;28;20039;-68
2022/04/03 08:10:00;;;;;;;3.33;0.85;;;;;;;;;;5078433;28;20052;-68
2022/04/03 08:12:26;;;;;;;1.48;0.57;;;;;;;;;;5072651;28;20174;-68
2022/04/03 08:14:52;;;;;;;2.00;0.70;;;;;;;;;;5073190;28;20024;-68
2022/04/03 08:17:18;;;;;;;3.97;0.93;;;;;;;;;;5077888;28;20382;-69
2022/04/03 08:19:44;;;;;;;2.80;0.80;;;;;;;;;;5086672;28;20176;-68
2022/04/03 08:22:10;;;;;;;2.90;0.82;;;;;;;;;;5108624;28;20126;-67
2022/04/03 08:24:36;;;;;;;1.17;0.77;;;;;;;;;;5090077;28;20058;-69
2022/04/03 08:27:02;;;;;;;3.00;1.20;;;;;;;;;;5080599;28;20085;-69
2022/04/03 08:29:28;;;;;;;2.72;0.60;;;;;;;;;;5071739;28;20446;-68
2022/04/03 08:31:54;;;;;;;1.67;0.63;;;;;;;;;;5056791;28;20040;-68
2022/04/03 08:34:20;;;;;;;0.73;0.60;;;6.20;99.90;;;;;;5055307;28;20032;-67
2022/04/03 08:36:46;;;;;;;2.75;0.60;;;;;;;;;;5059558;28;20468;-69
2022/04/03 08:39:12;;;;;;;3.17;0.55;;;;;;;;;;5070651;28;20502;-68
2022/04/03 08:41:38;;;;;;;1.85;0.88;;;;;;;;;;5066108;28;20032;-68
2022/04/03 08:44:07;;;;;;;2.45;0.70;;;;;;;;;;5080956;28;20044;-68
2022/04/03 08:46:34;;;;;;;1.33;0.93;;;;;;;;;;5072635;28;20047;-68
2022/04/03 08:49:01;;;;;;;5.85;1.77;;;;;;;;;;5088960;28;20139;-68
2022/04/03 08:51:29;;;;;;;1.52;0.77;;;6.90;99.90;;;;;;5069232;28;20059;-68
2022/04/03 08:53:55;;;;;;;2.33;1.15;;;6.70;99.90;;;;;;5068923;28;20505;-67
2022/04/03 08:56:21;;;;;;;4.25;1.65;;;6.50;99.90;;;;;;5069094;28;20044;-69
2022/04/03 08:58:46;;;;;;;7.88;2.28;;;6.40;99.90;;;;;;5069091;28;20043;-68
2022/04/03 09:01:12;;;;;;;2.92;0.75;;;6.80;99.90;;;;;;5068350;28;20121;-69
2022/04/03 09:03:39;;;;;;;1.33;1.02;;;6.80;99.90;;;;;;5085074;28;20119;-70
2022/04/03 09:06:13;;;;;;;2.60;0.80;;;7.30;99.90;;;;;;5069874;28;20085;-69
2022/04/03 09:08:38;;;;;;;3.22;1.10;;;;;;;;;;5069059;28;20067;-67
2022/04/03 09:11:05;;;;;;;2.85;0.80;;;7.40;99.90;;;;;;5052006;28;20044;-66
2022/04/03 09:13:31;;;;;;;5.10;1.05;;;;;;;;;;5069232;28;20040;-68
2022/04/03 09:15:57;;;;;;;1.58;1.00;;;;;;;;;;5087432;28;20032;-68
2022/04/03 09:18:24;;;;;;;2.72;1.00;;;;;;;;;;5086827;28;20093;-68
2022/04/03 09:20:50;;;;;;;2.08;1.00;;;;;;;;;;5052138;28;20086;-67
2022/04/03 09:23:18;;;;;;;1.63;0.80;;;;;;;;;;5078781;28;20055;-68
2022/04/03 09:25:44;;;;;;;4.82;1.10;;;7.30;99.90;;;;;;5075429;28;20044;-67
2022/04/03 09:28:11;;;;;;;2.60;1.10;;;7.40;99.90;;;;;;5100407;28;20550;-68
2022/04/03 09:30:49;;;;;;;8.70;1.27;;;7.20;99.90;;;;;;5088646;28;20044;-68
2022/04/03 09:33:19;;;;;;;4.18;1.10;;;7.10;99.90;;;;;;5111369;28;20039;-67
2022/04/03 09:35:57;;;;;;;4.90;1.75;;;7.20;99.90;;;;;;5079700;28;20032;-69
2022/04/03 09:38:24;;;;;;;1.63;0.85;;;7.30;99.90;;;;;;5084566;28;20034;-68
2022/04/03 09:40:52;;;;;;;3.65;1.50;;;6.90;99.90;;;;;;5069727;28;20042;-68
2022/04/03 09:43:25;;;;;;;9.40;3.25;;;6.80;99.90;;;;;;5069109;28;20040;-67
2022/04/03 09:46:11;;;;;;;2.55;0.80;;;6.90;99.90;;;;;;5076744;28;20041;-69
2022/04/03 09:48:41;;;;;;;1.55;0.90;;;6.90;99.90;;;;;;5056711;28;20275;-68
2022/04/03 09:51:13;;;;;;;9.60;1.58;;;7.10;99.90;;;;;;5074932;28;20032;-69
2022/04/03 09:53:44;;;;;;;2.03;1.10;;;7.10;99.90;;;;;;5098664;28;20303;-68
2022/04/03 09:56:12;;;;;;;6.78;1.25;;;6.80;99.90;;;;;;5103646;28;20089;-69
2022/04/03 09:58:56;;;;;;;4.45;1.58;;;6.90;99.90;;;;;;5075270;28;20127;-68
2022/04/03 10:01:34;;;;;;;8.32;2.80;;;7.30;99.90;;;;;;5074141;28;20118;-68
2022/04/03 10:04:02;;;;;;;2.63;0.82;;;7.00;99.90;;;;;;5087421;28;20110;-68
2022/04/03 10:06:29;;;;;;;2.78;0.60;;;;;;;;;;5090461;28;20071;-68
2022/04/03 10:08:56;;;;;;;3.22;0.70;;;7.70;99.90;;;;;;5071899;28;20043;-68
2022/04/03 10:11:22;;;;;;;1.63;0.75;;;7.90;99.90;;;;;;5089991;28;20623;-68
2022/04/03 10:13:49;;;;;;;3.65;1.60;;;8.00;99.90;;;;;;5072089;28;20398;-68
2022/04/03 10:16:16;;;;;;;3.55;0.70;;;7.80;99.90;;;;;;5086990;28;20092;-68
2022/04/03 10:18:43;;;;;;;1.23;0.93;;;7.80;99.90;;;;;;5072781;28;20032;-67
2022/04/03 10:21:31;;;;;;;5.45;1.98;;;7.70;99.90;;;;;;5080352;28;20028;-69
2022/04/03 10:24:04;;;;;;;2.25;0.90;;;8.00;99.90;;;;;;5091090;28;20050;-69
2022/04/03 10:26:35;;;;;;;3.55;1.75;;;8.60;99.90;;;;;;5100621;28;20572;-68
2022/04/03 10:29:05;;;;;;;5.32;2.20;;;8.60;99.90;;;;;;5090457;28;20059;-68
2022/04/03 10:31:31;;;;;;;5.97;3.03;;;;;;;;;;5079665;28;20050;-68
2022/04/03 10:33:56;;;;;;;2.15;1.38;;;;;;;;;;5109905;28;20062;-68
2022/04/03 10:36:27;;;;;;;2.25;0.80;;;8.10;99.90;;;;;;5109832;28;20047;-67
2022/04/03 10:39:03;;;;;;;1.27;0.60;;;7.80;99.90;;;;;;5106601;28;20548;-68
2022/04/03 10:41:29;;;;;;;5.85;1.73;;;;;;;;;;5051293;28;20028;-67
2022/04/03 10:44:14;;;;;;;0.50;0.50;;;7.20;99.90;;;;;;5091993;28;20035;-69
2022/04/03 10:47:02;;;;;;;1.38;0.63;;;6.70;99.90;;;;;;5091641;28;20036;-67
2022/04/03 10:49:32;;;;;;;0.70;0.57;;;;;;;;;;5052198;28;20066;-67
2022/04/03 10:52:07;;;;;;;1.92;0.70;;;6.70;99.90;;;;;;5100886;28;20039;-67
2022/04/03 10:54:40;;;;;;;3.70;0.77;;;;;;;;;;5109522;28;20051;-67
2022/04/03 10:57:34;;;;;;;1.33;0.70;;;6.90;99.90;;;;;;5091417;28;20134;-68
2022/04/03 11:00:12;;;;;;;2.03;0.75;;;6.80;99.90;;;;;;5090510;28;20054;-68
2022/04/03 11:02:38;;;;;;;4.60;0.90;;;;;;;;;;5084626;28;20051;-68
2022/04/03 11:05:21;;;;;;;1.92;1.15;;;6.30;99.90;;;;;;5088999;28;20048;-68
2022/04/03 11:07:51;;;;;;;2.55;1.00;;;6.30;99.90;;;;;;5070873;28;20036;-68
2022/04/03 11:10:48;;;;;;;0.98;0.80;;;6.30;99.90;;;;;;5092837;28;20115;-69
2022/04/03 11:13:18;;;;;;;1.50;0.70;;;;;;;;;;5074963;28;20036;-69
2022/04/03 11:16:04;;;;;;;3.60;1.00;;;6.40;99.90;;;;;;5092826;28;20035;-68
2022/04/03 11:18:33;;;;;;;1.13;0.90;;;6.30;99.90;;;;;;5057851;28;20401;-68
2022/04/03 11:21:18;;;;;;;1.98;1.10;;;6.40;99.90;;;;;;5057058;28;20040;-69
2022/04/03 11:23:50;;;;;;;4.90;1.58;;;6.50;99.90;;;;;;5092937;28;20032;-69
2022/04/03 11:26:17;;;;;;;1.07;0.90;;;6.20;99.90;;;;;;5074639;28;20513;-68
2022/04/03 11:28:44;;;;;;;2.40;0.85;;;6.60;99.90;;;;;;5074413;28;20570;-69
2022/04/03 11:31:10;;;;;;;1.85;0.85;;;6.70;99.90;;;;;;5072701;28;20698;-67
2022/04/03 11:33:37;;;;;;;3.88;1.05;;;;;;;;;;5068980;28;20083;-69
2022/04/03 11:36:11;;;;;;;2.15;0.90;;;6.60;99.90;;;;;;5073166;28;20119;-69
2022/04/03 11:38:46;;;;;;;3.03;1.30;;;6.60;99.90;;;;;;5074067;28;20036;-69
2022/04/03 11:41:17;;;;;;;2.78;1.20;;;6.70;99.90;;;;;;5091388;28;20085;-69
2022/04/03 11:43:43;;;;;;;3.35;1.27;;;;;;;;;;5092424;28;20044;-68
2022/04/03 11:46:09;;;;;;;3.78;1.02;;;7.70;99.90;;;;;;5073686;28;20051;-69
2022/04/03 11:48:42;;;;;;;1.63;1.10;;;7.70;99.90;;;;;;5074239;28;20440;-70
2022/04/03 11:51:13;;;;;;;2.25;1.42;;;8.10;99.90;;;;;;5090888;28;20395;-68
2022/04/03 11:53:41;;;;;;;4.63;1.50;;;7.80;99.90;;;;;;5073249;28;20036;-69
2022/04/03 11:56:10;;;;;;;3.03;1.58;;;7.80;99.90;;;;;;5073550;28;20036;-68
2022/04/03 11:58:37;;;;;;;5.13;1.90;;;;;;;;;;5073923;28;20036;-68
2022/04/03 12:01:03;;;;;;;2.50;1.20;;;;;;;;;;5091188;28;20047;-68
2022/04/03 12:03:30;;;;;;;3.42;2.10;;;;;;;;;;5068956;28;20397;-68
2022/04/03 12:06:16;;;;;;;2.30;1.13;;;8.30;99.90;;;;;;5056735;28;20065;-68
2022/04/03 12:08:45;;;;;;;3.22;1.13;;;8.30;99.90;;;;;;5080265;28;20067;-69
2022/04/03 12:11:20;;;;;;;7.10;3.50;;;8.10;99.90;;;;;;5089707;28;20214;-68
2022/04/03 12:13:45;;;;;;;4.70;3.05;;;8.50;99.90;;;;;;5090349;28;20036;-69
2022/04/03 12:16:16;;;;;;;7.00;2.10;;;8.50;99.90;;;;;;5091766;28;20239;-68
2022/04/03 12:18:55;;;;;;;2.50;1.30;;;9.40;99.90;;;;;;5090159;28;20075;-70
2022/04/03 12:21:46;;;;;;;2.88;1.50;;;9.70;99.90;;;;;;5089722;28;20155;-68
2022/04/03 12:24:12;;;;;;;1.30;0.80;;;9.50;99.90;;;;;;5090171;28;20123;-68
2022/04/03 12:26:38;;;;;;;1.40;0.65;;;9.20;99.90;;;;;;5085145;28;20107;-68
2022/04/03 12:29:07;;;;;;;5.68;2.00;;;8.80;99.90;;;;;;5072065;28;20036;-68
2022/04/03 12:31:34;;;;;;;0.90;0.82;;;8.60;99.90;;;;;;5091328;28;20036;-68
2022/04/03 12:34:18;;;;;;;1.02;0.73;;;8.60;99.90;;;;;;5072958;28;20118;-68
2022/04/03 12:36:53;;;;;;;6.88;3.88;;;9.00;99.90;;;;;;5090652;28;20047;-67
2022/04/03 12:39:33;;;;;;;8.65;3.92;;;8.80;99.90;;;;;;5090374;28;20051;-68
2022/04/03 12:42:15;;;;;;;5.78;2.45;;;8.80;99.90;;;;;;5091044;28;20426;-67
2022/04/03 12:44:51;;;;;;;4.03;0.80;;;8.60;99.90;;;;;;5073028;28;20082;-68
2022/04/03 12:47:23;;;;;;;2.53;0.98;;;8.50;99.90;;;;;;5073053;28;20089;-68
2022/04/03 12:50:25;;;;;;;1.45;0.70;;;8.80;99.90;;;;;;5072078;28;20072;-67
2022/04/03 12:52:56;;;;;;;3.50;0.73;;;8.20;99.90;;;;;;5091091;28;20498;-67
2022/04/03 12:55:22;;;;;;;2.85;0.80;;;;;;;;;;5056266;28;20036;-68
2022/04/03 13:00:56;;;;;;;2.00;0.63;;;9.10;99.90;;;;;;5089191;28;20516;-68
2022/04/03 13:03:39;;;;;;;0.85;0.40;;;8.80;99.90;;;;;;5072289;28;20075;-68
2022/04/03 13:06:06;;;;;;;1.55;0.60;;;8.70;99.90;;;;;;5071120;28;20413;-69
2022/04/03 13:08:46;;;;;;;1.83;0.70;;;9.00;99.90;;;;;;5060741;28;20039;-68
2022/04/03 13:11:12;;;;;;;1.50;0.73;;;;;;;;;;5076209;28;20131;-70
2022/04/03 13:13:39;;;;;;;6.05;2.45;;;8.80;99.90;;;;;;5094779;28;20516;-68
2022/04/03 13:16:05;;;;;;;4.97;1.85;;;;;;;;;;5095673;28;20516;-69
2022/04/03 13:18:31;;;;;;;3.25;2.03;;;;;;;;;;5094537;28;20090;-69
2022/04/03 13:20:58;;;;;;;2.45;1.58;;;;;;;;;;5058864;28;20036;-69
2022/04/03 13:23:25;;;;;;;6.40;2.55;;;9.40;99.90;;;;;;5094817;28;20519;-69
2022/04/03 13:25:51;;;;;;;4.97;1.60;;;9.00;99.90;;;;;;5076575;28;20137;-68
2022/04/03 13:28:17;;;;;;;3.78;1.35;;;;;;;;;;5076273;28;20075;-69
2022/04/03 13:30:44;;;;;;;3.80;1.90;;;9.00;99.90;;;;;;5058656;28;20050;-69
2022/04/03 13:33:10;;;;;;;8.30;4.07;;;9.20;99.90;;;;;;5076170;28;20036;-69
2022/04/03 13:35:38;;;;;;;2.05;1.00;;;9.40;99.90;;;;;;5076338;28;20405;-69
2022/04/03 13:38:11;;;;;;;4.60;2.50;;;9.90;99.50;;;;;;5076353;28;20105;-69
2022/04/03 13:40:38;;;;;;;2.05;1.13;;;9.90;98.90;;;;;;5075515;28;20521;-69
2022/04/03 13:43:09;;;;;;;2.35;1.30;;;10.00;98.80;;;;;;5093293;28;20043;-68
2022/04/03 13:48:20;;;;;;;4.72;2.40;;;;;;;;;;5076127;28;20201;-69
2022/04/03 13:50:46;;;;;;;4.38;2.15;;;8.80;99.90;;;;;;5075253;28;20541;-69
2022/04/03 13:53:11;;;;;;;4.90;1.70;;;;;;;;;;5075915;28;20528;-68
2022/04/03 13:55:37;;;;;;;3.55;1.77;;;;;;;;;;5075530;28;20485;-69
2022/04/03 13:58:03;;;;;;;4.43;1.50;;;;;;;;;;5076806;28;20409;-69
2022/04/03 14:00:30;;;;;;;1.63;1.13;;;;;;;;;;5058789;28;20036;-69
2022/04/03 14:02:56;;;;;;;1.67;0.82;;;9.30;99.90;;;;;;5059211;28;20036;-69
2022/04/03 14:05:22;;;;;;;5.63;1.90;;;9.00;99.90;;;;;;5074978;28;20066;-69
2022/04/03 14:07:48;;;;;;;2.17;1.10;;;;;;;;;;5093981;28;20114;-69
2022/04/03 14:10:14;;;;;;;2.72;1.20;;;;;;;;;;5057994;28;20040;-70